Terminal Aerodrome Forecast
Issued by NWS

Home | Current Version | Previous Version | Text Only | Print | Product List | Glossary On
Versions: 1 2 3 4 5 6 7 8 9 10 11 12 13 14 15 16 17 18 19 20 21 22 23 24 25 26 27 28 29 30 31 32 33 34 35 36 37 38 39 40 41 42 43 44 45 46
000
FTUS45 KBOU 250538
TAFAPA
TAF
KAPA 250538Z 2506/2606 22009KT P6SM SCT120 SCT200
     FM250900 23009KT P6SM SCT120 BKN200
     FM251700 02010G20KT P6SM SCT070 OVC140
     FM252300 03012G20KT 5SM -SN SCT012 OVC020
      TEMPO 2600/2603 1SM -SN BR BKN007 OVC014
     FM260300 04014G22KT 3/4SM -SN BR OVC005=

USA.gov is the U.S. government's official web portal to all federal, state and local government web resources and services.